sensor_id;sensor_type;location;lat;lon;timestamp;temperature;humidity
6740;DHT22;3407;49.882;10.920;2023-05-07T00:02:33;12.80;1.00
6740;DHT22;3407;49.882;10.920;2023-05-07T00:07:29;12.70;1.00
6740;DHT22;3407;49.882;10.920;2023-05-07T00:12:24;12.70;1.00
6740;DHT22;3407;49.882;10.920;2023-05-07T00:17:20;12.70;1.00
6740;DHT22;3407;49.882;10.920;2023-05-07T00:22:16;12.80;1.00
6740;DHT22;3407;49.882;10.920;2023-05-07T00:27:11;13.00;1.00
6740;DHT22;3407;49.882;10.920;2023-05-07T00:32:08;13.10;1.00
6740;DHT22;3407;49.882;10.920;2023-05-07T00:37:03;13.20;1.00
6740;DHT22;3407;49.882;10.920;2023-05-07T00:41:59;13.30;1.00
6740;DHT22;3407;49.882;10.920;2023-05-07T00:47:00;13.30;1.00
6740;DHT22;3407;49.882;10.920;2023-05-07T00:51:56;13.40;1.00
6740;DHT22;3407;49.882;10.920;2023-05-07T00:56:54;13.40;1.00
6740;DHT22;3407;49.882;10.920;2023-05-07T01:01:50;13.50;1.00
6740;DHT22;3407;49.882;10.920;2023-05-07T01:06:47;13.60;1.00
6740;DHT22;3407;49.882;10.920;2023-05-07T01:11:43;13.70;1.00
6740;DHT22;3407;49.882;10.920;2023-05-07T01:16:39;13.70;1.00
6740;DHT22;3407;49.882;10.920;2023-05-07T01:21:37;13.80;1.00
6740;DHT22;3407;49.882;10.920;2023-05-07T01:26:33;13.80;99.90
6740;DHT22;3407;49.882;10.920;2023-05-07T01:31:29;13.80;1.00
6740;DHT22;3407;49.882;10.920;2023-05-07T01:36:25;13.90;1.00
6740;DHT22;3407;49.882;10.920;2023-05-07T01:41:22;13.90;99.90
6740;DHT22;3407;49.882;10.920;2023-05-07T01:46:18;14.00;99.90
6740;DHT22;3407;49.882;10.920;2023-05-07T01:51:14;13.90;99.90
6740;DHT22;3407;49.882;10.920;2023-05-07T01:56:10;14.00;99.90
6740;DHT22;3407;49.882;10.920;2023-05-07T02:01:05;13.90;1.00
6740;DHT22;3407;49.882;10.920;2023-05-07T02:06:01;13.90;99.90
6740;DHT22;3407;49.882;10.920;2023-05-07T02:10:56;13.90;1.00
6740;DHT22;3407;49.882;10.920;2023-05-07T02:15:52;13.90;1.00
6740;DHT22;3407;49.882;10.920;2023-05-07T02:20:48;14.00;79.30
6740;DHT22;3407;49.882;10.920;2023-05-07T02:25:44;14.00;1.00
6740;DHT22;3407;49.882;10.920;2023-05-07T02:30:40;13.90;99.90
6740;DHT22;3407;49.882;10.920;2023-05-07T02:35:36;13.90;99.90
6740;DHT22;3407;49.882;10.920;2023-05-07T02:40:31;14.00;99.90
6740;DHT22;3407;49.882;10.920;2023-05-07T02:45:28;14.00;99.90
6740;DHT22;3407;49.882;10.920;2023-05-07T02:50:24;14.00;99.90
6740;DHT22;3407;49.882;10.920;2023-05-07T02:55:20;14.00;99.90
6740;DHT22;3407;49.882;10.920;2023-05-07T03:00:20;14.00;99.90
6740;DHT22;3407;49.882;10.920;2023-05-07T03:05:15;13.90;1.00
6740;DHT22;3407;49.882;10.920;2023-05-07T03:10:11;13.90;1.00
6740;DHT22;3407;49.882;10.920;2023-05-07T03:15:07;13.70;99.90
6740;DHT22;3407;49.882;10.920;2023-05-07T03:20:03;13.50;99.90
6740;DHT22;3407;49.882;10.920;2023-05-07T03:24:59;13.40;99.90
6740;DHT22;3407;49.882;10.920;2023-05-07T03:29:55;13.30;1.00
6740;DHT22;3407;49.882;10.920;2023-05-07T03:34:50;13.20;1.00
6740;DHT22;3407;49.882;10.920;2023-05-07T03:39:46;13.10;1.00
6740;DHT22;3407;49.882;10.920;2023-05-07T03:44:41;13.00;1.00
6740;DHT22;3407;49.882;10.920;2023-05-07T03:49:37;12.90;1.00
6740;DHT22;3407;49.882;10.920;2023-05-07T03:54:33;12.90;1.00
6740;DHT22;3407;49.882;10.920;2023-05-07T03:59:28;12.80;1.00
6740;DHT22;3407;49.882;10.920;2023-05-07T04:04:24;12.70;1.00
6740;DHT22;3407;49.882;10.920;2023-05-07T04:09:19;12.70;1.00
6740;DHT22;3407;49.882;10.920;2023-05-07T04:14:15;12.70;1.00
6740;DHT22;3407;49.882;10.920;2023-05-07T04:19:10;12.80;1.00
6740;DHT22;3407;49.882;10.920;2023-05-07T04:24:06;12.80;1.00
6740;DHT22;3407;49.882;10.920;2023-05-07T04:29:02;12.80;1.00
6740;DHT22;3407;49.882;10.920;2023-05-07T04:33:57;12.90;1.00
6740;DHT22;3407;49.882;10.920;2023-05-07T04:38:53;13.10;1.00
6740;DHT22;3407;49.882;10.920;2023-05-07T04:43:49;13.40;1.00
6740;DHT22;3407;49.882;10.920;2023-05-07T04:48:44;13.80;1.00
6740;DHT22;3407;49.882;10.920;2023-05-07T04:53:40;14.40;99.90
6740;DHT22;3407;49.882;10.920;2023-05-07T04:58:36;15.10;99.90
6740;DHT22;3407;49.882;10.920;2023-05-07T05:03:31;15.70;99.90
6740;DHT22;3407;49.882;10.920;2023-05-07T05:08:27;16.40;99.90
6740;DHT22;3407;49.882;10.920;2023-05-07T05:13:22;17.00;31.50
6740;DHT22;3407;49.882;10.920;2023-05-07T05:18:18;17.50;99.90
6740;DHT22;3407;49.882;10.920;2023-05-07T05:23:13;18.50;1.00
6740;DHT22;3407;49.882;10.920;2023-05-07T05:28:09;19.00;1.00
6740;DHT22;3407;49.882;10.920;2023-05-07T05:33:04;18.60;1.00
6740;DHT22;3407;49.882;10.920;2023-05-07T05:38:00;18.00;1.00
6740;DHT22;3407;49.882;10.920;2023-05-07T05:42:55;18.10;1.00
6740;DHT22;3407;49.882;10.920;2023-05-07T05:47:51;18.50;1.00
6740;DHT22;3407;49.882;10.920;2023-05-07T05:52:46;18.60;1.00
6740;DHT22;3407;49.882;10.920;2023-05-07T05:57:42;20.90;99.90
6740;DHT22;3407;49.882;10.920;2023-05-07T06:02:38;22.50;99.90
6740;DHT22;3407;49.882;10.920;2023-05-07T06:07:33;21.70;99.90
6740;DHT22;3407;49.882;10.920;2023-05-07T06:12:29;21.60;99.90
6740;DHT22;3407;49.882;10.920;2023-05-07T06:17:25;22.00;99.90
6740;DHT22;3407;49.882;10.920;2023-05-07T06:22:21;22.10;99.90
6740;DHT22;3407;49.882;10.920;2023-05-07T06:27:17;23.00;99.90
6740;DHT22;3407;49.882;10.920;2023-05-07T06:32:13;24.50;99.90
6740;DHT22;3407;49.882;10.920;2023-05-07T06:37:09;22.50;99.90
6740;DHT22;3407;49.882;10.920;2023-05-07T06:42:04;20.70;99.90
6740;DHT22;3407;49.882;10.920;2023-05-07T06:47:00;19.70;99.90
6740;DHT22;3407;49.882;10.920;2023-05-07T06:51:56;19.50;99.90
6740;DHT22;3407;49.882;10.920;2023-05-07T06:56:52;19.20;99.90
6740;DHT22;3407;49.882;10.920;2023-05-07T07:01:47;19.30;99.90
6740;DHT22;3407;49.882;10.920;2023-05-07T07:06:43;19.20;99.90
6740;DHT22;3407;49.882;10.920;2023-05-07T07:11:38;19.30;99.90
6740;DHT22;3407;49.882;10.920;2023-05-07T07:16:34;19.10;99.90
6740;DHT22;3407;49.882;10.920;2023-05-07T07:21:29;19.40;99.90
6740;DHT22;3407;49.882;10.920;2023-05-07T07:26:25;19.50;99.90
6740;DHT22;3407;49.882;10.920;2023-05-07T07:31:21;19.70;99.90
6740;DHT22;3407;49.882;10.920;2023-05-07T07:36:16;19.70;99.90
6740;DHT22;3407;49.882;10.920;2023-05-07T07:41:12;20.10;99.90
6740;DHT22;3407;49.882;10.920;2023-05-07T07:46:07;19.70;99.90
6740;DHT22;3407;49.882;10.920;2023-05-07T07:51:03;20.50;99.90
6740;DHT22;3407;49.882;10.920;2023-05-07T07:55:59;20.90;99.90
6740;DHT22;3407;49.882;10.920;2023-05-07T08:00:54;20.50;99.90
6740;DHT22;3407;49.882;10.920;2023-05-07T08:05:51;20.80;99.90
6740;DHT22;3407;49.882;10.920;2023-05-07T08:10:46;21.20;99.90
6740;DHT22;3407;49.882;10.920;2023-05-07T08:15:45;20.90;99.90
6740;DHT22;3407;49.882;10.920;2023-05-07T08:20:40;21.00;99.90
6740;DHT22;3407;49.882;10.920;2023-05-07T08:25:36;21.50;99.90
6740;DHT22;3407;49.882;10.920;2023-05-07T08:30:32;22.70;99.90
6740;DHT22;3407;49.882;10.920;2023-05-07T08:35:28;25.20;99.90
6740;DHT22;3407;49.882;10.920;2023-05-07T08:40:25;26.00;99.90
6740;DHT22;3407;49.882;10.920;2023-05-07T08:45:21;26.20;99.90
6740;DHT22;3407;49.882;10.920;2023-05-07T08:50:18;25.40;99.90
6740;DHT22;3407;49.882;10.920;2023-05-07T08:55:14;24.90;99.90
6740;DHT22;3407;49.882;10.920;2023-05-07T09:00:10;24.80;99.90
6740;DHT22;3407;49.882;10.920;2023-05-07T09:05:07;24.50;99.90
6740;DHT22;3407;49.882;10.920;2023-05-07T09:10:04;24.00;99.90
6740;DHT22;3407;49.882;10.920;2023-05-07T09:14:59;24.30;99.90
6740;DHT22;3407;49.882;10.920;2023-05-07T09:19:55;24.80;99.90
6740;DHT22;3407;49.882;10.920;2023-05-07T09:24:51;26.00;99.90
6740;DHT22;3407;49.882;10.920;2023-05-07T09:29:46;28.10;99.90
6740;DHT22;3407;49.882;10.920;2023-05-07T09:34:42;28.20;99.90
6740;DHT22;3407;49.882;10.920;2023-05-07T09:39:45;28.90;99.90
6740;DHT22;3407;49.882;10.920;2023-05-07T09:44:43;29.10;99.90
6740;DHT22;3407;49.882;10.920;2023-05-07T09:49:39;28.50;99.90
6740;DHT22;3407;49.882;10.920;2023-05-07T09:54:37;27.00;99.90
6740;DHT22;3407;49.882;10.920;2023-05-07T09:59:34;28.00;99.90
6740;DHT22;3407;49.882;10.920;2023-05-07T10:04:32;29.90;99.90
6740;DHT22;3407;49.882;10.920;2023-05-07T10:09:28;28.60;99.90
6740;DHT22;3407;49.882;10.920;2023-05-07T10:14:24;27.00;99.90
6740;DHT22;3407;49.882;10.920;2023-05-07T10:19:20;26.00;99.90
6740;DHT22;3407;49.882;10.920;2023-05-07T10:24:21;25.40;99.90
6740;DHT22;3407;49.882;10.920;2023-05-07T10:34:25;24.50;99.90
6740;DHT22;3407;49.882;10.920;2023-05-07T10:39:22;25.20;99.90
6740;DHT22;3407;49.882;10.920;2023-05-07T10:44:28;26.00;99.90
6740;DHT22;3407;49.882;10.920;2023-05-07T10:49:24;26.50;99.90
6740;DHT22;3407;49.882;10.920;2023-05-07T10:54:20;27.70;99.90
6740;DHT22;3407;49.882;10.920;2023-05-07T11:04:19;26.20;99.90
6740;DHT22;3407;49.882;10.920;2023-05-07T11:09:21;25.40;99.90
6740;DHT22;3407;49.882;10.920;2023-05-07T11:19:49;24.10;99.90
6740;DHT22;3407;49.882;10.920;2023-05-07T11:24:46;24.30;99.90
6740;DHT22;3407;49.882;10.920;2023-05-07T11:29:46;24.90;99.90
6740;DHT22;3407;49.882;10.920;2023-05-07T11:34:42;25.70;99.90
6740;DHT22;3407;49.882;10.920;2023-05-07T11:39:39;27.10;99.90
6740;DHT22;3407;49.882;10.920;2023-05-07T11:44:44;28.50;99.90
6740;DHT22;3407;49.882;10.920;2023-05-07T11:49:41;27.30;99.90
6740;DHT22;3407;49.882;10.920;2023-05-07T11:54:37;26.70;99.90
6740;DHT22;3407;49.882;10.920;2023-05-07T11:59:41;26.10;99.90
6740;DHT22;3407;49.882;10.920;2023-05-07T12:04:39;25.80;99.90
6740;DHT22;3407;49.882;10.920;2023-05-07T12:09:35;26.10;99.90
6740;DHT22;3407;49.882;10.920;2023-05-07T12:14:30;26.10;99.90
6740;DHT22;3407;49.882;10.920;2023-05-07T12:19:26;25.70;99.90
6740;DHT22;3407;49.882;10.920;2023-05-07T12:24:23;25.20;99.90
6740;DHT22;3407;49.882;10.920;2023-05-07T12:29:21;24.50;99.90
6740;DHT22;3407;49.882;10.920;2023-05-07T12:34:18;23.80;99.90
6740;DHT22;3407;49.882;10.920;2023-05-07T12:39:13;23.40;99.90
6740;DHT22;3407;49.882;10.920;2023-05-07T12:44:09;23.00;99.90
6740;DHT22;3407;49.882;10.920;2023-05-07T12:49:04;22.90;99.90
6740;DHT22;3407;49.882;10.920;2023-05-07T12:54:00;22.90;99.90
6740;DHT22;3407;49.882;10.920;2023-05-07T12:58:57;23.60;99.90
6740;DHT22;3407;49.882;10.920;2023-05-07T13:03:53;24.90;99.90
6740;DHT22;3407;49.882;10.920;2023-05-07T13:08:48;25.00;99.90
6740;DHT22;3407;49.882;10.920;2023-05-07T13:13:44;25.10;99.90
6740;DHT22;3407;49.882;10.920;2023-05-07T13:18:40;24.80;99.90
6740;DHT22;3407;49.882;10.920;2023-05-07T13:23:36;24.80;99.90
6740;DHT22;3407;49.882;10.920;2023-05-07T13:28:33;26.30;99.90
6740;DHT22;3407;49.882;10.920;2023-05-07T13:33:29;28.00;99.90
6740;DHT22;3407;49.882;10.920;2023-05-07T13:38:24;28.20;99.90
6740;DHT22;3407;49.882;10.920;2023-05-07T13:43:20;29.40;99.90
6740;DHT22;3407;49.882;10.920;2023-05-07T13:48:15;29.20;98.90
6740;DHT22;3407;49.882;10.920;2023-05-07T13:53:11;27.90;99.90
6740;DHT22;3407;49.882;10.920;2023-05-07T13:58:06;28.50;99.90
6740;DHT22;3407;49.882;10.920;2023-05-07T14:03:02;28.10;98.90
6740;DHT22;3407;49.882;10.920;2023-05-07T14:07:59;27.50;99.90
6740;DHT22;3407;49.882;10.920;2023-05-07T14:12:55;26.00;99.90
6740;DHT22;3407;49.882;10.920;2023-05-07T14:17:51;24.70;99.90
6740;DHT22;3407;49.882;10.920;2023-05-07T14:22:46;24.10;99.90
6740;DHT22;3407;49.882;10.920;2023-05-07T14:27:42;23.40;99.90
6740;DHT22;3407;49.882;10.920;2023-05-07T14:32:37;23.10;99.90
6740;DHT22;3407;49.882;10.920;2023-05-07T14:37:33;22.90;99.90
6740;DHT22;3407;49.882;10.920;2023-05-07T14:42:28;23.00;99.90
6740;DHT22;3407;49.882;10.920;2023-05-07T14:47:24;23.10;99.90
6740;DHT22;3407;49.882;10.920;2023-05-07T14:52:20;23.00;99.90
6740;DHT22;3407;49.882;10.920;2023-05-07T14:57:15;22.90;99.90
6740;DHT22;3407;49.882;10.920;2023-05-07T15:02:12;22.80;99.90
6740;DHT22;3407;49.882;10.920;2023-05-07T15:07:08;22.80;99.90
6740;DHT22;3407;49.882;10.920;2023-05-07T15:12:03;22.80;99.90
6740;DHT22;3407;49.882;10.920;2023-05-07T15:16:59;22.70;99.90
6740;DHT22;3407;49.882;10.920;2023-05-07T15:21:58;22.80;99.90
6740;DHT22;3407;49.882;10.920;2023-05-07T15:26:54;22.70;99.90
6740;DHT22;3407;49.882;10.920;2023-05-07T15:31:50;22.80;99.90
6740;DHT22;3407;49.882;10.920;2023-05-07T15:36:47;22.80;99.90
6740;DHT22;3407;49.882;10.920;2023-05-07T15:41:43;22.70;99.90
6740;DHT22;3407;49.882;10.920;2023-05-07T15:46:38;22.40;99.90
6740;DHT22;3407;49.882;10.920;2023-05-07T15:51:34;22.40;99.90
6740;DHT22;3407;49.882;10.920;2023-05-07T15:56:30;22.30;99.90
6740;DHT22;3407;49.882;10.920;2023-05-07T16:01:29;22.30;99.90
6740;DHT22;3407;49.882;10.920;2023-05-07T16:06:25;22.30;99.90
6740;DHT22;3407;49.882;10.920;2023-05-07T16:11:22;22.10;99.90
6740;DHT22;3407;49.882;10.920;2023-05-07T16:16:17;22.20;99.90
6740;DHT22;3407;49.882;10.920;2023-05-07T16:21:13;22.30;99.90
6740;DHT22;3407;49.882;10.920;2023-05-07T16:26:09;22.20;99.90
6740;DHT22;3407;49.882;10.920;2023-05-07T16:31:07;22.10;99.90
6740;DHT22;3407;49.882;10.920;2023-05-07T16:36:02;21.90;99.90
6740;DHT22;3407;49.882;10.920;2023-05-07T16:40:59;21.90;99.90
6740;DHT22;3407;49.882;10.920;2023-05-07T16:45:54;21.80;99.90
6740;DHT22;3407;49.882;10.920;2023-05-07T16:50:50;21.50;99.90
6740;DHT22;3407;49.882;10.920;2023-05-07T16:55:46;21.40;99.90
6740;DHT22;3407;49.882;10.920;2023-05-07T17:00:41;21.30;99.90
6740;DHT22;3407;49.882;10.920;2023-05-07T17:05:37;21.20;99.90
6740;DHT22;3407;49.882;10.920;2023-05-07T17:10:33;21.10;99.90
6740;DHT22;3407;49.882;10.920;2023-05-07T17:15:28;21.00;99.90
6740;DHT22;3407;49.882;10.920;2023-05-07T17:20:24;20.90;99.90
6740;DHT22;3407;49.882;10.920;2023-05-07T17:25:20;20.60;99.90
6740;DHT22;3407;49.882;10.920;2023-05-07T17:30:17;20.40;99.90
6740;DHT22;3407;49.882;10.920;2023-05-07T17:35:13;20.20;99.90
6740;DHT22;3407;49.882;10.920;2023-05-07T17:40:08;20.00;99.90
6740;DHT22;3407;49.882;10.920;2023-05-07T17:45:05;19.80;99.90
6740;DHT22;3407;49.882;10.920;2023-05-07T17:50:00;19.60;99.90
6740;DHT22;3407;49.882;10.920;2023-05-07T17:54:57;19.40;99.90
6740;DHT22;3407;49.882;10.920;2023-05-07T17:59:52;19.30;99.90
6740;DHT22;3407;49.882;10.920;2023-05-07T18:04:48;19.00;99.90
6740;DHT22;3407;49.882;10.920;2023-05-07T18:09:43;18.90;99.90
6740;DHT22;3407;49.882;10.920;2023-05-07T18:14:39;18.70;99.90
6740;DHT22;3407;49.882;10.920;2023-05-07T18:19:35;18.60;99.90
6740;DHT22;3407;49.882;10.920;2023-05-07T18:24:30;18.50;99.90
6740;DHT22;3407;49.882;10.920;2023-05-07T18:29:26;18.30;99.90
6740;DHT22;3407;49.882;10.920;2023-05-07T18:34:21;18.30;99.90
6740;DHT22;3407;49.882;10.920;2023-05-07T18:39:17;18.10;99.90
6740;DHT22;3407;49.882;10.920;2023-05-07T18:44:13;18.00;99.90
6740;DHT22;3407;49.882;10.920;2023-05-07T18:49:08;17.90;99.90
6740;DHT22;3407;49.882;10.920;2023-05-07T18:54:04;17.80;99.90
6740;DHT22;3407;49.882;10.920;2023-05-07T18:58:59;17.70;99.90
6740;DHT22;3407;49.882;10.920;2023-05-07T19:03:55;17.60;99.90
6740;DHT22;3407;49.882;10.920;2023-05-07T19:08:51;17.60;99.90
6740;DHT22;3407;49.882;10.920;2023-05-07T19:13:46;17.40;1.00
6740;DHT22;3407;49.882;10.920;2023-05-07T19:18:42;17.40;1.00
6740;DHT22;3407;49.882;10.920;2023-05-07T19:23:37;17.30;1.00
6740;DHT22;3407;49.882;10.920;2023-05-07T19:28:39;17.20;1.00
6740;DHT22;3407;49.882;10.920;2023-05-07T19:33:34;17.20;1.00
6740;DHT22;3407;49.882;10.920;2023-05-07T19:38:30;17.10;1.00
6740;DHT22;3407;49.882;10.920;2023-05-07T19:43:26;17.10;1.00
6740;DHT22;3407;49.882;10.920;2023-05-07T19:48:21;17.00;1.00
6740;DHT22;3407;49.882;10.920;2023-05-07T19:53:17;16.90;1.00
6740;DHT22;3407;49.882;10.920;2023-05-07T19:58:12;16.80;1.00
6740;DHT22;3407;49.882;10.920;2023-05-07T20:03:11;16.80;1.00
6740;DHT22;3407;49.882;10.920;2023-05-07T20:08:12;16.70;1.00
6740;DHT22;3407;49.882;10.920;2023-05-07T20:13:08;16.60;1.00
6740;DHT22;3407;49.882;10.920;2023-05-07T20:18:03;16.60;1.00
6740;DHT22;3407;49.882;10.920;2023-05-07T20:22:59;16.50;1.00
6740;DHT22;3407;49.882;10.920;2023-05-07T20:27:55;16.50;1.00
6740;DHT22;3407;49.882;10.920;2023-05-07T20:32:51;16.40;1.00
6740;DHT22;3407;49.882;10.920;2023-05-07T20:37:46;16.40;99.90
6740;DHT22;3407;49.882;10.920;2023-05-07T20:42:42;16.40;53.40
6740;DHT22;3407;49.882;10.920;2023-05-07T20:47:37;16.40;1.00
6740;DHT22;3407;49.882;10.920;2023-05-07T20:52:34;16.40;1.00
6740;DHT22;3407;49.882;10.920;2023-05-07T20:57:30;16.30;1.00
6740;DHT22;3407;49.882;10.920;2023-05-07T21:02:25;16.20;1.00
6740;DHT22;3407;49.882;10.920;2023-05-07T21:07:21;16.10;1.00
6740;DHT22;3407;49.882;10.920;2023-05-07T21:12:16;16.00;1.00
6740;DHT22;3407;49.882;10.920;2023-05-07T21:17:12;16.00;1.00
6740;DHT22;3407;49.882;10.920;2023-05-07T21:22:07;15.90;1.00
6740;DHT22;3407;49.882;10.920;2023-05-07T21:27:03;15.90;1.00
6740;DHT22;3407;49.882;10.920;2023-05-07T21:31:58;15.80;99.90
6740;DHT22;3407;49.882;10.920;2023-05-07T21:36:54;15.70;1.00
6740;DHT22;3407;49.882;10.920;2023-05-07T21:41:50;15.70;1.00
6740;DHT22;3407;49.882;10.920;2023-05-07T21:46:45;15.60;99.90
6740;DHT22;3407;49.882;10.920;2023-05-07T21:51:41;15.50;1.00
6740;DHT22;3407;49.882;10.920;2023-05-07T21:56:37;15.50;1.00
6740;DHT22;3407;49.882;10.920;2023-05-07T22:01:32;15.30;1.00
6740;DHT22;3407;49.882;10.920;2023-05-07T22:06:28;15.20;1.00
6740;DHT22;3407;49.882;10.920;2023-05-07T22:11:23;15.10;1.00
6740;DHT22;3407;49.882;10.920;2023-05-07T22:16:19;15.10;1.00
6740;DHT22;3407;49.882;10.920;2023-05-07T22:21:14;15.00;1.00
6740;DHT22;3407;49.882;10.920;2023-05-07T22:26:13;14.90;1.00
6740;DHT22;3407;49.882;10.920;2023-05-07T22:31:09;14.80;1.00
6740;DHT22;3407;49.882;10.920;2023-05-07T22:36:05;14.70;1.00
6740;DHT22;3407;49.882;10.920;2023-05-07T22:41:02;14.60;1.00
6740;DHT22;3407;49.882;10.920;2023-05-07T22:45:58;14.60;1.00
6740;DHT22;3407;49.882;10.920;2023-05-07T22:50:55;14.50;1.00
6740;DHT22;3407;49.882;10.920;2023-05-07T22:55:50;14.40;1.00
6740;DHT22;3407;49.882;10.920;2023-05-07T23:00:46;14.40;1.00
6740;DHT22;3407;49.882;10.920;2023-05-07T23:05:41;14.40;1.00
6740;DHT22;3407;49.882;10.920;2023-05-07T23:10:37;14.30;1.00
6740;DHT22;3407;49.882;10.920;2023-05-07T23:15:32;14.30;1.00
6740;DHT22;3407;49.882;10.920;2023-05-07T23:20:28;14.30;1.00
6740;DHT22;3407;49.882;10.920;2023-05-07T23:25:24;14.20;1.00
6740;DHT22;3407;49.882;10.920;2023-05-07T23:30:19;14.20;1.00
6740;DHT22;3407;49.882;10.920;2023-05-07T23:35:15;14.10;1.00
6740;DHT22;3407;49.882;10.920;2023-05-07T23:40:11;14.00;1.00
6740;DHT22;3407;49.882;10.920;2023-05-07T23:45:06;14.00;1.00
6740;DHT22;3407;49.882;10.920;2023-05-07T23:50:02;13.90;37.30
6740;DHT22;3407;49.882;10.920;2023-05-07T23:54:58;13.80;1.00
6740;DHT22;3407;49.882;10.920;2023-05-07T23:59:53;13.70;73.00
